sensor_id;sensor_type;location;lat;lon;timestamp;P1;durP1;ratioP1;P2;durP2;ratioP2
8260;SDS011;64115;50.170;8.242;2023-04-23T00:01:22;6.10;;;5.70;;
8260;SDS011;64115;50.170;8.242;2023-04-23T00:03:53;6.20;;;5.70;;
8260;SDS011;64115;50.170;8.242;2023-04-23T00:06:24;6.40;;;5.90;;
8260;SDS011;64115;50.170;8.242;2023-04-23T00:08:54;6.00;;;5.60;;
8260;SDS011;64115;50.170;8.242;2023-04-23T00:11:25;6.10;;;5.60;;
8260;SDS011;64115;50.170;8.242;2023-04-23T00:13:52;6.00;;;5.60;;
8260;SDS011;64115;50.170;8.242;2023-04-23T00:16:20;7.13;;;5.97;;
8260;SDS011;64115;50.170;8.242;2023-04-23T00:18:48;6.57;;;5.97;;
8260;SDS011;64115;50.170;8.242;2023-04-23T00:21:15;6.27;;;5.77;;
8260;SDS011;64115;50.170;8.242;2023-04-23T00:23:44;6.23;;;5.70;;
8260;SDS011;64115;50.170;8.242;2023-04-23T00:26:11;6.50;;;5.90;;
8260;SDS011;64115;50.170;8.242;2023-04-23T00:28:38;6.10;;;5.70;;
8260;SDS011;64115;50.170;8.242;2023-04-23T00:31:05;6.60;;;6.10;;
8260;SDS011;64115;50.170;8.242;2023-04-23T00:33:32;6.10;;;5.70;;
8260;SDS011;64115;50.170;8.242;2023-04-23T00:35:59;6.10;;;5.60;;
8260;SDS011;64115;50.170;8.242;2023-04-23T00:38:27;5.90;;;5.40;;
8260;SDS011;64115;50.170;8.242;2023-04-23T00:40:55;6.10;;;5.60;;
8260;SDS011;64115;50.170;8.242;2023-04-23T00:43:22;6.23;;;5.63;;
8260;SDS011;64115;50.170;8.242;2023-04-23T00:45:49;5.67;;;5.27;;
8260;SDS011;64115;50.170;8.242;2023-04-23T00:48:17;5.47;;;4.97;;
8260;SDS011;64115;50.170;8.242;2023-04-23T00:50:45;5.63;;;5.27;;
8260;SDS011;64115;50.170;8.242;2023-04-23T00:53:12;6.20;;;5.70;;
8260;SDS011;64115;50.170;8.242;2023-04-23T00:55:39;6.50;;;5.90;;
8260;SDS011;64115;50.170;8.242;2023-04-23T00:58:08;5.77;;;5.37;;
8260;SDS011;64115;50.170;8.242;2023-04-23T01:00:36;6.07;;;5.67;;
8260;SDS011;64115;50.170;8.242;2023-04-23T01:03:10;5.53;;;5.10;;
8260;SDS011;64115;50.170;8.242;2023-04-23T01:05:37;6.03;;;5.53;;
8260;SDS011;64115;50.170;8.242;2023-04-23T01:08:05;6.63;;;6.13;;
8260;SDS011;64115;50.170;8.242;2023-04-23T01:10:33;6.57;;;6.00;;
8260;SDS011;64115;50.170;8.242;2023-04-23T01:13:00;6.60;;;6.10;;
8260;SDS011;64115;50.170;8.242;2023-04-23T01:15:29;6.60;;;5.90;;
8260;SDS011;64115;50.170;8.242;2023-04-23T01:17:56;6.37;;;5.80;;
8260;SDS011;64115;50.170;8.242;2023-04-23T01:20:23;6.20;;;5.73;;
8260;SDS011;64115;50.170;8.242;2023-04-23T01:22:54;6.60;;;6.00;;
8260;SDS011;64115;50.170;8.242;2023-04-23T01:25:21;5.90;;;5.50;;
8260;SDS011;64115;50.170;8.242;2023-04-23T01:27:48;5.57;;;5.17;;
8260;SDS011;64115;50.170;8.242;2023-04-23T01:30:16;6.10;;;5.50;;
8260;SDS011;64115;50.170;8.242;2023-04-23T01:32:43;6.20;;;5.70;;
8260;SDS011;64115;50.170;8.242;2023-04-23T01:35:10;6.13;;;5.63;;
8260;SDS011;64115;50.170;8.242;2023-04-23T01:37:38;5.70;;;5.17;;
8260;SDS011;64115;50.170;8.242;2023-04-23T01:40:08;6.17;;;5.53;;
8260;SDS011;64115;50.170;8.242;2023-04-23T01:42:35;6.57;;;5.90;;
8260;SDS011;64115;50.170;8.242;2023-04-23T01:45:03;6.10;;;5.67;;
8260;SDS011;64115;50.170;8.242;2023-04-23T01:47:33;6.60;;;6.10;;
8260;SDS011;64115;50.170;8.242;2023-04-23T01:50:00;6.00;;;5.60;;
8260;SDS011;64115;50.170;8.242;2023-04-23T01:52:29;7.07;;;6.37;;
8260;SDS011;64115;50.170;8.242;2023-04-23T01:54:56;6.70;;;6.03;;
8260;SDS011;64115;50.170;8.242;2023-04-23T01:57:25;6.30;;;5.70;;
8260;SDS011;64115;50.170;8.242;2023-04-23T01:59:52;8.57;;;5.90;;
8260;SDS011;64115;50.170;8.242;2023-04-23T02:02:23;6.67;;;5.93;;
8260;SDS011;64115;50.170;8.242;2023-04-23T02:04:50;6.80;;;6.20;;
8260;SDS011;64115;50.170;8.242;2023-04-23T02:07:18;8.27;;;6.40;;
8260;SDS011;64115;50.170;8.242;2023-04-23T02:09:45;6.23;;;5.77;;
8260;SDS011;64115;50.170;8.242;2023-04-23T02:12:12;6.50;;;6.00;;
8260;SDS011;64115;50.170;8.242;2023-04-23T02:14:41;7.97;;;6.10;;
8260;SDS011;64115;50.170;8.242;2023-04-23T02:17:08;6.33;;;5.83;;
8260;SDS011;64115;50.170;8.242;2023-04-23T02:19:36;6.67;;;6.17;;
8260;SDS011;64115;50.170;8.242;2023-04-23T02:22:03;7.67;;;5.80;;
8260;SDS011;64115;50.170;8.242;2023-04-23T02:24:31;6.67;;;6.07;;
8260;SDS011;64115;50.170;8.242;2023-04-23T02:26:58;6.50;;;6.00;;
8260;SDS011;64115;50.170;8.242;2023-04-23T02:29:26;6.73;;;6.10;;
8260;SDS011;64115;50.170;8.242;2023-04-23T02:31:55;6.43;;;5.93;;
8260;SDS011;64115;50.170;8.242;2023-04-23T02:34:22;6.87;;;6.27;;
8260;SDS011;64115;50.170;8.242;2023-04-23T02:36:49;6.60;;;6.10;;
8260;SDS011;64115;50.170;8.242;2023-04-23T02:39:17;6.97;;;6.20;;
8260;SDS011;64115;50.170;8.242;2023-04-23T02:41:44;72.77;;;28.03;;
8260;SDS011;64115;50.170;8.242;2023-04-23T02:44:11;6.53;;;6.03;;
8260;SDS011;64115;50.170;8.242;2023-04-23T02:46:38;7.30;;;6.63;;
8260;SDS011;64115;50.170;8.242;2023-04-23T02:49:07;7.10;;;6.40;;
8260;SDS011;64115;50.170;8.242;2023-04-23T02:51:34;6.20;;;5.70;;
8260;SDS011;64115;50.170;8.242;2023-04-23T02:54:01;6.10;;;5.63;;
8260;SDS011;64115;50.170;8.242;2023-04-23T02:56:28;6.30;;;5.80;;
8260;SDS011;64115;50.170;8.242;2023-04-23T02:58:55;6.37;;;5.60;;
8260;SDS011;64115;50.170;8.242;2023-04-23T03:01:22;6.00;;;5.50;;
8260;SDS011;64115;50.170;8.242;2023-04-23T03:03:49;6.40;;;5.90;;
8260;SDS011;64115;50.170;8.242;2023-04-23T03:06:17;6.77;;;5.77;;
8260;SDS011;64115;50.170;8.242;2023-04-23T03:08:45;6.30;;;5.80;;
8260;SDS011;64115;50.170;8.242;2023-04-23T03:11:13;6.10;;;5.60;;
8260;SDS011;64115;50.170;8.242;2023-04-23T03:13:40;6.83;;;6.27;;
8260;SDS011;64115;50.170;8.242;2023-04-23T03:16:07;5.90;;;5.50;;
8260;SDS011;64115;50.170;8.242;2023-04-23T03:18:35;7.03;;;6.43;;
8260;SDS011;64115;50.170;8.242;2023-04-23T03:21:02;7.53;;;6.77;;
8260;SDS011;64115;50.170;8.242;2023-04-23T03:23:31;8.47;;;7.77;;
8260;SDS011;64115;50.170;8.242;2023-04-23T03:25:58;8.37;;;7.67;;
8260;SDS011;64115;50.170;8.242;2023-04-23T03:28:25;9.33;;;8.33;;
8260;SDS011;64115;50.170;8.242;2023-04-23T03:30:52;9.63;;;8.73;;
8260;SDS011;64115;50.170;8.242;2023-04-23T03:33:20;9.23;;;8.33;;
8260;SDS011;64115;50.170;8.242;2023-04-23T03:35:47;9.83;;;8.93;;
8260;SDS011;64115;50.170;8.242;2023-04-23T03:38:14;10.07;;;9.17;;
8260;SDS011;64115;50.170;8.242;2023-04-23T03:40:43;9.20;;;8.40;;
8260;SDS011;64115;50.170;8.242;2023-04-23T03:43:10;9.53;;;8.63;;
8260;SDS011;64115;50.170;8.242;2023-04-23T03:45:37;10.43;;;9.53;;
8260;SDS011;64115;50.170;8.242;2023-04-23T03:48:05;10.40;;;9.43;;
8260;SDS011;64115;50.170;8.242;2023-04-23T03:50:32;10.50;;;9.40;;
8260;SDS011;64115;50.170;8.242;2023-04-23T03:53:02;10.10;;;9.20;;
8260;SDS011;64115;50.170;8.242;2023-04-23T03:55:29;10.60;;;9.60;;
8260;SDS011;64115;50.170;8.242;2023-04-23T03:57:58;10.47;;;9.37;;
8260;SDS011;64115;50.170;8.242;2023-04-23T04:00:25;10.47;;;9.47;;
8260;SDS011;64115;50.170;8.242;2023-04-23T04:02:52;11.70;;;10.40;;
8260;SDS011;64115;50.170;8.242;2023-04-23T04:05:20;11.37;;;10.27;;
8260;SDS011;64115;50.170;8.242;2023-04-23T04:07:47;9.00;;;8.30;;
8260;SDS011;64115;50.170;8.242;2023-04-23T04:10:14;9.80;;;9.00;;
8260;SDS011;64115;50.170;8.242;2023-04-23T04:12:41;8.50;;;7.80;;
8260;SDS011;64115;50.170;8.242;2023-04-23T04:15:13;7.97;;;7.27;;
8260;SDS011;64115;50.170;8.242;2023-04-23T04:17:41;8.47;;;7.53;;
8260;SDS011;64115;50.170;8.242;2023-04-23T04:20:10;7.90;;;7.27;;
8260;SDS011;64115;50.170;8.242;2023-04-23T04:22:37;7.53;;;7.00;;
8260;SDS011;64115;50.170;8.242;2023-04-23T04:25:05;7.23;;;6.53;;
8260;SDS011;64115;50.170;8.242;2023-04-23T04:27:33;7.30;;;6.70;;
8260;SDS011;64115;50.170;8.242;2023-04-23T04:30:00;7.47;;;6.73;;
8260;SDS011;64115;50.170;8.242;2023-04-23T04:32:31;7.30;;;6.70;;
8260;SDS011;64115;50.170;8.242;2023-04-23T04:34:58;7.23;;;6.63;;
8260;SDS011;64115;50.170;8.242;2023-04-23T04:37:26;6.67;;;6.17;;
8260;SDS011;64115;50.170;8.242;2023-04-23T04:39:53;6.43;;;5.93;;
8260;SDS011;64115;50.170;8.242;2023-04-23T04:42:21;6.90;;;6.37;;
8260;SDS011;64115;50.170;8.242;2023-04-23T04:44:49;6.33;;;5.80;;
8260;SDS011;64115;50.170;8.242;2023-04-23T04:47:17;7.20;;;6.50;;
8260;SDS011;64115;50.170;8.242;2023-04-23T04:49:47;7.07;;;6.47;;
8260;SDS011;64115;50.170;8.242;2023-04-23T04:52:14;6.80;;;6.30;;
8260;SDS011;64115;50.170;8.242;2023-04-23T04:54:41;6.33;;;5.93;;
8260;SDS011;64115;50.170;8.242;2023-04-23T04:57:08;6.03;;;5.43;;
8260;SDS011;64115;50.170;8.242;2023-04-23T04:59:35;6.20;;;5.60;;
8260;SDS011;64115;50.170;8.242;2023-04-23T05:02:03;5.87;;;5.37;;
8260;SDS011;64115;50.170;8.242;2023-04-23T05:04:30;5.27;;;4.87;;
8260;SDS011;64115;50.170;8.242;2023-04-23T05:06:59;5.77;;;5.27;;
8260;SDS011;64115;50.170;8.242;2023-04-23T05:09:26;5.60;;;5.10;;
8260;SDS011;64115;50.170;8.242;2023-04-23T05:11:53;4.97;;;4.60;;
8260;SDS011;64115;50.170;8.242;2023-04-23T05:14:20;5.00;;;4.70;;
8260;SDS011;64115;50.170;8.242;2023-04-23T05:16:50;5.53;;;5.13;;
8260;SDS011;64115;50.170;8.242;2023-04-23T05:19:17;6.27;;;5.60;;
8260;SDS011;64115;50.170;8.242;2023-04-23T05:21:44;5.27;;;4.87;;
8260;SDS011;64115;50.170;8.242;2023-04-23T05:24:12;6.40;;;5.80;;
8260;SDS011;64115;50.170;8.242;2023-04-23T05:26:40;6.77;;;6.27;;
8260;SDS011;64115;50.170;8.242;2023-04-23T05:29:07;6.80;;;6.30;;
8260;SDS011;64115;50.170;8.242;2023-04-23T05:31:34;7.43;;;6.83;;
8260;SDS011;64115;50.170;8.242;2023-04-23T05:34:01;8.70;;;7.90;;
8260;SDS011;64115;50.170;8.242;2023-04-23T05:36:28;9.30;;;8.30;;
8260;SDS011;64115;50.170;8.242;2023-04-23T05:38:55;9.33;;;8.53;;
8260;SDS011;64115;50.170;8.242;2023-04-23T05:41:24;9.27;;;8.33;;
8260;SDS011;64115;50.170;8.242;2023-04-23T05:43:51;12.00;;;9.30;;
8260;SDS011;64115;50.170;8.242;2023-04-23T05:46:18;9.00;;;8.27;;
8260;SDS011;64115;50.170;8.242;2023-04-23T05:48:45;9.00;;;8.10;;
8260;SDS011;64115;50.170;8.242;2023-04-23T05:51:12;8.67;;;7.70;;
8260;SDS011;64115;50.170;8.242;2023-04-23T05:53:39;8.80;;;7.97;;
8260;SDS011;64115;50.170;8.242;2023-04-23T05:56:06;7.53;;;6.93;;
8260;SDS011;64115;50.170;8.242;2023-04-23T05:58:34;6.87;;;6.43;;
8260;SDS011;64115;50.170;8.242;2023-04-23T06:01:02;6.57;;;6.07;;
8260;SDS011;64115;50.170;8.242;2023-04-23T06:03:30;6.80;;;6.30;;
8260;SDS011;64115;50.170;8.242;2023-04-23T06:05:56;6.37;;;5.97;;
8260;SDS011;64115;50.170;8.242;2023-04-23T06:08:24;6.50;;;6.10;;
8260;SDS011;64115;50.170;8.242;2023-04-23T06:10:51;6.70;;;6.20;;
8260;SDS011;64115;50.170;8.242;2023-04-23T06:13:19;6.13;;;5.63;;
8260;SDS011;64115;50.170;8.242;2023-04-23T06:15:48;6.17;;;5.77;;
8260;SDS011;64115;50.170;8.242;2023-04-23T06:18:15;6.03;;;5.63;;
8260;SDS011;64115;50.170;8.242;2023-04-23T06:20:42;7.47;;;6.87;;
8260;SDS011;64115;50.170;8.242;2023-04-23T06:23:10;6.13;;;5.70;;
8260;SDS011;64115;50.170;8.242;2023-04-23T06:25:37;6.10;;;5.70;;
8260;SDS011;64115;50.170;8.242;2023-04-23T06:28:05;6.20;;;5.70;;
8260;SDS011;64115;50.170;8.242;2023-04-23T06:30:32;6.13;;;5.73;;
8260;SDS011;64115;50.170;8.242;2023-04-23T06:33:01;6.70;;;6.10;;
8260;SDS011;64115;50.170;8.242;2023-04-23T06:35:28;15.40;;;6.50;;
8260;SDS011;64115;50.170;8.242;2023-04-23T06:37:56;5.43;;;5.03;;
8260;SDS011;64115;50.170;8.242;2023-04-23T06:40:23;5.70;;;5.30;;
8260;SDS011;64115;50.170;8.242;2023-04-23T06:42:50;5.20;;;4.70;;
8260;SDS011;64115;50.170;8.242;2023-04-23T06:45:17;5.57;;;5.17;;
8260;SDS011;64115;50.170;8.242;2023-04-23T06:47:44;5.90;;;5.40;;
8260;SDS011;64115;50.170;8.242;2023-04-23T06:50:14;5.87;;;5.47;;
8260;SDS011;64115;50.170;8.242;2023-04-23T06:52:42;5.10;;;4.80;;
8260;SDS011;64115;50.170;8.242;2023-04-23T06:55:09;5.63;;;5.13;;
8260;SDS011;64115;50.170;8.242;2023-04-23T06:57:36;6.17;;;5.57;;
8260;SDS011;64115;50.170;8.242;2023-04-23T07:00:04;5.63;;;5.23;;
8260;SDS011;64115;50.170;8.242;2023-04-23T07:02:33;5.97;;;5.57;;
8260;SDS011;64115;50.170;8.242;2023-04-23T07:05:00;5.90;;;5.30;;
8260;SDS011;64115;50.170;8.242;2023-04-23T07:07:29;5.97;;;5.57;;
8260;SDS011;64115;50.170;8.242;2023-04-23T07:09:56;5.83;;;5.43;;
8260;SDS011;64115;50.170;8.242;2023-04-23T07:12:23;5.73;;;5.27;;
8260;SDS011;64115;50.170;8.242;2023-04-23T07:14:50;6.00;;;5.43;;
8260;SDS011;64115;50.170;8.242;2023-04-23T07:17:18;5.80;;;5.40;;
8260;SDS011;64115;50.170;8.242;2023-04-23T07:19:45;5.50;;;5.20;;
8260;SDS011;64115;50.170;8.242;2023-04-23T07:22:13;5.80;;;5.30;;
8260;SDS011;64115;50.170;8.242;2023-04-23T07:27:20;6.20;;;5.70;;
8260;SDS011;64115;50.170;8.242;2023-04-23T07:29:50;5.20;;;4.80;;
8260;SDS011;64115;50.170;8.242;2023-04-23T07:32:19;5.77;;;5.37;;
8260;SDS011;64115;50.170;8.242;2023-04-23T07:34:47;5.23;;;4.73;;
8260;SDS011;64115;50.170;8.242;2023-04-23T07:37:15;5.10;;;4.70;;
8260;SDS011;64115;50.170;8.242;2023-04-23T07:39:42;5.23;;;4.93;;
8260;SDS011;64115;50.170;8.242;2023-04-23T07:42:09;6.07;;;4.70;;
8260;SDS011;64115;50.170;8.242;2023-04-23T07:44:38;5.97;;;4.43;;
8260;SDS011;64115;50.170;8.242;2023-04-23T07:47:06;4.67;;;4.30;;
8260;SDS011;64115;50.170;8.242;2023-04-23T07:49:33;4.80;;;4.50;;
8260;SDS011;64115;50.170;8.242;2023-04-23T07:52:00;4.27;;;3.97;;
8260;SDS011;64115;50.170;8.242;2023-04-23T07:54:27;5.30;;;4.37;;
8260;SDS011;64115;50.170;8.242;2023-04-23T07:56:54;4.40;;;4.10;;
8260;SDS011;64115;50.170;8.242;2023-04-23T07:59:21;4.77;;;4.37;;
8260;SDS011;64115;50.170;8.242;2023-04-23T08:01:49;5.20;;;4.80;;
8260;SDS011;64115;50.170;8.242;2023-04-23T08:04:17;4.67;;;4.37;;
8260;SDS011;64115;50.170;8.242;2023-04-23T08:06:44;4.90;;;4.50;;
8260;SDS011;64115;50.170;8.242;2023-04-23T08:09:11;4.93;;;4.63;;
8260;SDS011;64115;50.170;8.242;2023-04-23T08:11:39;5.30;;;4.90;;
8260;SDS011;64115;50.170;8.242;2023-04-23T08:14:06;6.13;;;5.63;;
8260;SDS011;64115;50.170;8.242;2023-04-23T08:16:33;5.80;;;5.40;;
8260;SDS011;64115;50.170;8.242;2023-04-23T08:19:02;5.73;;;5.20;;
8260;SDS011;64115;50.170;8.242;2023-04-23T08:21:30;5.70;;;5.20;;
8260;SDS011;64115;50.170;8.242;2023-04-23T08:23:57;5.60;;;5.10;;
8260;SDS011;64115;50.170;8.242;2023-04-23T08:26:24;5.97;;;5.47;;
8260;SDS011;64115;50.170;8.242;2023-04-23T08:28:52;6.67;;;6.07;;
8260;SDS011;64115;50.170;8.242;2023-04-23T08:31:19;6.10;;;5.60;;
8260;SDS011;64115;50.170;8.242;2023-04-23T08:33:46;6.33;;;5.77;;
8260;SDS011;64115;50.170;8.242;2023-04-23T08:36:15;6.10;;;5.70;;
8260;SDS011;64115;50.170;8.242;2023-04-23T08:38:42;6.57;;;6.03;;
8260;SDS011;64115;50.170;8.242;2023-04-23T08:41:10;8.37;;;5.43;;
8260;SDS011;64115;50.170;8.242;2023-04-23T08:43:42;6.03;;;5.27;;
8260;SDS011;64115;50.170;8.242;2023-04-23T08:46:12;6.00;;;5.60;;
8260;SDS011;64115;50.170;8.242;2023-04-23T08:48:40;6.40;;;5.57;;
8260;SDS011;64115;50.170;8.242;2023-04-23T08:51:09;5.73;;;5.23;;
8260;SDS011;64115;50.170;8.242;2023-04-23T08:53:44;5.90;;;5.50;;
8260;SDS011;64115;50.170;8.242;2023-04-23T08:56:17;7.70;;;5.43;;
8260;SDS011;64115;50.170;8.242;2023-04-23T08:58:47;5.70;;;5.20;;
8260;SDS011;64115;50.170;8.242;2023-04-23T09:01:16;5.63;;;5.13;;
8260;SDS011;64115;50.170;8.242;2023-04-23T09:03:44;5.53;;;5.13;;
8260;SDS011;64115;50.170;8.242;2023-04-23T09:06:12;5.90;;;5.20;;
8260;SDS011;64115;50.170;8.242;2023-04-23T09:08:39;5.30;;;4.80;;
8260;SDS011;64115;50.170;8.242;2023-04-23T09:11:09;10.00;;;5.60;;
8260;SDS011;64115;50.170;8.242;2023-04-23T09:13:36;5.37;;;4.93;;
8260;SDS011;64115;50.170;8.242;2023-04-23T09:16:05;5.10;;;4.80;;
8260;SDS011;64115;50.170;8.242;2023-04-23T09:18:35;5.53;;;4.90;;
8260;SDS011;64115;50.170;8.242;2023-04-23T09:21:03;4.90;;;4.50;;
8260;SDS011;64115;50.170;8.242;2023-04-23T09:23:32;5.00;;;4.60;;
8260;SDS011;64115;50.170;8.242;2023-04-23T09:26:04;5.13;;;4.73;;
8260;SDS011;64115;50.170;8.242;2023-04-23T09:28:35;4.80;;;4.40;;
8260;SDS011;64115;50.170;8.242;2023-04-23T09:31:03;5.97;;;4.07;;
8260;SDS011;64115;50.170;8.242;2023-04-23T09:33:33;4.60;;;4.30;;
8260;SDS011;64115;50.170;8.242;2023-04-23T09:36:04;4.53;;;4.13;;
8260;SDS011;64115;50.170;8.242;2023-04-23T09:38:35;4.30;;;3.97;;
8260;SDS011;64115;50.170;8.242;2023-04-23T09:43:49;4.17;;;3.80;;
8260;SDS011;64115;50.170;8.242;2023-04-23T09:46:30;4.60;;;4.20;;
8260;SDS011;64115;50.170;8.242;2023-04-23T09:48:59;3.80;;;3.50;;
8260;SDS011;64115;50.170;8.242;2023-04-23T09:51:28;4.47;;;3.40;;
8260;SDS011;64115;50.170;8.242;2023-04-23T09:53:55;3.73;;;3.43;;
8260;SDS011;64115;50.170;8.242;2023-04-23T09:56:23;3.90;;;3.27;;
8260;SDS011;64115;50.170;8.242;2023-04-23T09:58:54;3.77;;;2.47;;
8260;SDS011;64115;50.170;8.242;2023-04-23T10:01:26;2.73;;;2.53;;
8260;SDS011;64115;50.170;8.242;2023-04-23T10:03:55;3.37;;;2.40;;
8260;SDS011;64115;50.170;8.242;2023-04-23T10:06:27;2.40;;;2.30;;
8260;SDS011;64115;50.170;8.242;2023-04-23T10:08:56;2.63;;;2.43;;
8260;SDS011;64115;50.170;8.242;2023-04-23T10:11:24;2.83;;;2.63;;
8260;SDS011;64115;50.170;8.242;2023-04-23T10:13:54;3.23;;;2.70;;
8260;SDS011;64115;50.170;8.242;2023-04-23T10:16:22;2.80;;;2.60;;
8260;SDS011;64115;50.170;8.242;2023-04-23T10:18:50;3.00;;;2.80;;
8260;SDS011;64115;50.170;8.242;2023-04-23T10:21:21;3.53;;;2.87;;
8260;SDS011;64115;50.170;8.242;2023-04-23T10:23:53;3.53;;;2.70;;
8260;SDS011;64115;50.170;8.242;2023-04-23T10:26:22;2.80;;;2.40;;
8260;SDS011;64115;50.170;8.242;2023-04-23T10:28:52;2.70;;;2.50;;
8260;SDS011;64115;50.170;8.242;2023-04-23T10:31:23;2.50;;;2.30;;
8260;SDS011;64115;50.170;8.242;2023-04-23T10:33:52;2.13;;;1.93;;
8260;SDS011;64115;50.170;8.242;2023-04-23T10:36:21;3.40;;;2.17;;
8260;SDS011;64115;50.170;8.242;2023-04-23T10:38:50;3.90;;;2.20;;
8260;SDS011;64115;50.170;8.242;2023-04-23T10:41:18;2.27;;;2.07;;
8260;SDS011;64115;50.170;8.242;2023-04-23T10:43:49;3.50;;;2.00;;
8260;SDS011;64115;50.170;8.242;2023-04-23T10:46:29;2.13;;;1.93;;
8260;SDS011;64115;50.170;8.242;2023-04-23T10:49:04;2.00;;;1.90;;
8260;SDS011;64115;50.170;8.242;2023-04-23T10:51:32;2.10;;;1.90;;
8260;SDS011;64115;50.170;8.242;2023-04-23T10:54:01;2.40;;;2.20;;
8260;SDS011;64115;50.170;8.242;2023-04-23T10:56:29;3.47;;;1.83;;
8260;SDS011;64115;50.170;8.242;2023-04-23T10:58:56;2.17;;;2.00;;
8260;SDS011;64115;50.170;8.242;2023-04-23T11:01:24;2.27;;;2.07;;
8260;SDS011;64115;50.170;8.242;2023-04-23T11:03:54;1.97;;;1.87;;
8260;SDS011;64115;50.170;8.242;2023-04-23T11:12:08;1.50;;;1.50;;
8260;SDS011;64115;50.170;8.242;2023-04-23T11:14:41;1.73;;;1.53;;
8260;SDS011;64115;50.170;8.242;2023-04-23T11:17:12;1.77;;;1.63;;
8260;SDS011;64115;50.170;8.242;2023-04-23T11:20:03;1.63;;;1.53;;
8260;SDS011;64115;50.170;8.242;2023-04-23T11:22:34;1.80;;;1.70;;
8260;SDS011;64115;50.170;8.242;2023-04-23T11:25:02;1.57;;;1.47;;
8260;SDS011;64115;50.170;8.242;2023-04-23T11:27:31;2.30;;;1.80;;
8260;SDS011;64115;50.170;8.242;2023-04-23T11:29:58;2.50;;;1.90;;
8260;SDS011;64115;50.170;8.242;2023-04-23T11:32:26;2.13;;;1.90;;
8260;SDS011;64115;50.170;8.242;2023-04-23T11:34:55;2.07;;;1.90;;
8260;SDS011;64115;50.170;8.242;2023-04-23T11:37:24;2.13;;;1.90;;
8260;SDS011;64115;50.170;8.242;2023-04-23T11:39:51;2.20;;;1.80;;
8260;SDS011;64115;50.170;8.242;2023-04-23T11:42:20;2.00;;;1.63;;
8260;SDS011;64115;50.170;8.242;2023-04-23T11:44:47;1.77;;;1.67;;
8260;SDS011;64115;50.170;8.242;2023-04-23T11:47:15;2.30;;;2.20;;
8260;SDS011;64115;50.170;8.242;2023-04-23T11:49:42;3.07;;;2.80;;
8260;SDS011;64115;50.170;8.242;2023-04-23T11:52:13;3.03;;;2.83;;
8260;SDS011;64115;50.170;8.242;2023-04-23T11:54:40;3.63;;;3.10;;
8260;SDS011;64115;50.170;8.242;2023-04-23T11:57:08;3.33;;;3.03;;
8260;SDS011;64115;50.170;8.242;2023-04-23T11:59:38;4.43;;;3.07;;
8260;SDS011;64115;50.170;8.242;2023-04-23T12:02:06;3.10;;;2.80;;
8260;SDS011;64115;50.170;8.242;2023-04-23T12:04:33;3.10;;;2.90;;
8260;SDS011;64115;50.170;8.242;2023-04-23T12:07:00;3.17;;;2.53;;
8260;SDS011;64115;50.170;8.242;2023-04-23T12:09:29;3.10;;;2.90;;
8260;SDS011;64115;50.170;8.242;2023-04-23T12:11:57;3.83;;;3.53;;
8260;SDS011;64115;50.170;8.242;2023-04-23T12:14:27;3.53;;;3.33;;
8260;SDS011;64115;50.170;8.242;2023-04-23T12:16:56;3.70;;;3.40;;
8260;SDS011;64115;50.170;8.242;2023-04-23T12:19:25;3.33;;;3.10;;
8260;SDS011;64115;50.170;8.242;2023-04-23T12:21:54;3.20;;;3.00;;
8260;SDS011;64115;50.170;8.242;2023-04-23T12:24:23;3.33;;;3.07;;
8260;SDS011;64115;50.170;8.242;2023-04-23T12:26:53;4.00;;;3.70;;
8260;SDS011;64115;50.170;8.242;2023-04-23T12:29:22;3.30;;;3.00;;
8260;SDS011;64115;50.170;8.242;2023-04-23T12:31:51;3.23;;;3.03;;
8260;SDS011;64115;50.170;8.242;2023-04-23T12:34:20;4.03;;;2.93;;
8260;SDS011;64115;50.170;8.242;2023-04-23T12:36:48;4.33;;;3.00;;
8260;SDS011;64115;50.170;8.242;2023-04-23T12:39:20;3.07;;;2.83;;
8260;SDS011;64115;50.170;8.242;2023-04-23T12:41:49;3.10;;;2.83;;
8260;SDS011;64115;50.170;8.242;2023-04-23T12:44:18;3.13;;;2.93;;
8260;SDS011;64115;50.170;8.242;2023-04-23T12:46:48;3.20;;;2.97;;
8260;SDS011;64115;50.170;8.242;2023-04-23T12:49:19;3.50;;;2.73;;
8260;SDS011;64115;50.170;8.242;2023-04-23T12:51:46;6.40;;;3.33;;
8260;SDS011;64115;50.170;8.242;2023-04-23T12:54:14;3.53;;;2.57;;
8260;SDS011;64115;50.170;8.242;2023-04-23T12:56:41;2.47;;;2.27;;
8260;SDS011;64115;50.170;8.242;2023-04-23T12:59:08;2.17;;;1.93;;
8260;SDS011;64115;50.170;8.242;2023-04-23T13:01:37;2.20;;;2.00;;
8260;SDS011;64115;50.170;8.242;2023-04-23T13:04:04;2.87;;;2.67;;
8260;SDS011;64115;50.170;8.242;2023-04-23T13:06:32;2.63;;;2.50;;
8260;SDS011;64115;50.170;8.242;2023-04-23T13:08:59;3.10;;;2.80;;
8260;SDS011;64115;50.170;8.242;2023-04-23T13:11:29;2.67;;;2.50;;
8260;SDS011;64115;50.170;8.242;2023-04-23T13:13:56;2.50;;;2.30;;
8260;SDS011;64115;50.170;8.242;2023-04-23T13:16:23;3.20;;;2.43;;
8260;SDS011;64115;50.170;8.242;2023-04-23T13:18:51;2.77;;;2.57;;
8260;SDS011;64115;50.170;8.242;2023-04-23T13:21:18;2.57;;;2.43;;
8260;SDS011;64115;50.170;8.242;2023-04-23T13:23:45;2.80;;;2.60;;
8260;SDS011;64115;50.170;8.242;2023-04-23T13:26:12;2.97;;;2.77;;
8260;SDS011;64115;50.170;8.242;2023-04-23T13:28:40;2.70;;;2.50;;
8260;SDS011;64115;50.170;8.242;2023-04-23T13:31:07;2.33;;;2.23;;
8260;SDS011;64115;50.170;8.242;2023-04-23T13:33:36;3.17;;;2.97;;
8260;SDS011;64115;50.170;8.242;2023-04-23T13:36:06;3.00;;;2.80;;
8260;SDS011;64115;50.170;8.242;2023-04-23T13:38:33;2.80;;;2.60;;
8260;SDS011;64115;50.170;8.242;2023-04-23T13:41:00;3.00;;;2.50;;
8260;SDS011;64115;50.170;8.242;2023-04-23T13:43:27;2.93;;;2.70;;
8260;SDS011;64115;50.170;8.242;2023-04-23T13:45:54;2.70;;;2.50;;
8260;SDS011;64115;50.170;8.242;2023-04-23T13:48:21;3.07;;;2.73;;
8260;SDS011;64115;50.170;8.242;2023-04-23T13:50:52;2.53;;;2.20;;
8260;SDS011;64115;50.170;8.242;2023-04-23T13:53:21;2.73;;;2.50;;
8260;SDS011;64115;50.170;8.242;2023-04-23T13:55:48;2.97;;;1.97;;
8260;SDS011;64115;50.170;8.242;2023-04-23T13:58:15;2.03;;;1.90;;
8260;SDS011;64115;50.170;8.242;2023-04-23T14:00:42;2.20;;;2.10;;
8260;SDS011;64115;50.170;8.242;2023-04-23T14:03:10;2.43;;;2.23;;
8260;SDS011;64115;50.170;8.242;2023-04-23T14:05:37;1.90;;;1.80;;
8260;SDS011;64115;50.170;8.242;2023-04-23T14:08:04;2.90;;;1.80;;
8260;SDS011;64115;50.170;8.242;2023-04-23T14:10:33;2.63;;;1.73;;
8260;SDS011;64115;50.170;8.242;2023-04-23T14:13:01;2.53;;;1.57;;
8260;SDS011;64115;50.170;8.242;2023-04-23T14:15:28;2.40;;;1.80;;
8260;SDS011;64115;50.170;8.242;2023-04-23T14:17:55;1.67;;;1.57;;
8260;SDS011;64115;50.170;8.242;2023-04-23T14:20:23;1.30;;;1.30;;
8260;SDS011;64115;50.170;8.242;2023-04-23T14:22:54;1.60;;;1.50;;
8260;SDS011;64115;50.170;8.242;2023-04-23T14:25:23;1.53;;;1.43;;
8260;SDS011;64115;50.170;8.242;2023-04-23T14:27:59;1.80;;;1.50;;
8260;SDS011;64115;50.170;8.242;2023-04-23T14:30:28;1.43;;;1.40;;
8260;SDS011;64115;50.170;8.242;2023-04-23T14:32:57;1.60;;;1.43;;
8260;SDS011;64115;50.170;8.242;2023-04-23T14:35:24;1.10;;;1.10;;
8260;SDS011;64115;50.170;8.242;2023-04-23T14:37:51;1.40;;;1.30;;
8260;SDS011;64115;50.170;8.242;2023-04-23T14:40:18;2.10;;;1.40;;
8260;SDS011;64115;50.170;8.242;2023-04-23T14:42:46;1.43;;;1.40;;
8260;SDS011;64115;50.170;8.242;2023-04-23T14:45:15;1.50;;;1.40;;
8260;SDS011;64115;50.170;8.242;2023-04-23T14:47:44;1.80;;;1.40;;
8260;SDS011;64115;50.170;8.242;2023-04-23T14:50:13;2.40;;;1.50;;
8260;SDS011;64115;50.170;8.242;2023-04-23T14:52:42;1.67;;;1.53;;
8260;SDS011;64115;50.170;8.242;2023-04-23T14:55:12;1.67;;;1.57;;
8260;SDS011;64115;50.170;8.242;2023-04-23T14:57:40;1.47;;;1.37;;
8260;SDS011;64115;50.170;8.242;2023-04-23T15:00:08;1.57;;;1.37;;
8260;SDS011;64115;50.170;8.242;2023-04-23T15:02:39;1.50;;;1.40;;
8260;SDS011;64115;50.170;8.242;2023-04-23T15:05:06;2.37;;;1.40;;
8260;SDS011;64115;50.170;8.242;2023-04-23T15:07:34;2.17;;;1.40;;
8260;SDS011;64115;50.170;8.242;2023-04-23T15:10:01;1.50;;;1.40;;
8260;SDS011;64115;50.170;8.242;2023-04-23T15:12:36;1.60;;;1.50;;
8260;SDS011;64115;50.170;8.242;2023-04-23T15:15:13;1.30;;;1.20;;
8260;SDS011;64115;50.170;8.242;2023-04-23T15:17:48;2.03;;;1.60;;